sensor_id;sensor_type;location;lat;lon;timestamp;temperature;humidity
75994;DHT22;64680;53.800;9.988;2023-04-01T00:01:58;8.90;92.70
75994;DHT22;64680;53.800;9.988;2023-04-01T00:04:24;8.90;91.90
75994;DHT22;64680;53.800;9.988;2023-04-01T00:06:49;8.90;91.90
75994;DHT22;64680;53.800;9.988;2023-04-01T00:09:15;8.90;92.20
75994;DHT22;64680;53.800;9.988;2023-04-01T00:11:41;8.90;91.90
75994;DHT22;64680;53.800;9.988;2023-04-01T00:14:07;8.90;91.90
75994;DHT22;64680;53.800;9.988;2023-04-01T00:16:33;8.90;92.00
75994;DHT22;64680;53.800;9.988;2023-04-01T00:18:59;8.90;91.90
75994;DHT22;64680;53.800;9.988;2023-04-01T00:21:25;8.90;91.90
75994;DHT22;64680;53.800;9.988;2023-04-01T00:23:51;8.90;91.90
75994;DHT22;64680;53.800;9.988;2023-04-01T00:26:17;8.90;91.90
75994;DHT22;64680;53.800;9.988;2023-04-01T00:28:46;8.90;92.00
75994;DHT22;64680;53.800;9.988;2023-04-01T00:31:12;8.90;92.00
75994;DHT22;64680;53.800;9.988;2023-04-01T00:33:38;8.90;92.00
75994;DHT22;64680;53.800;9.988;2023-04-01T00:36:10;8.90;92.10
75994;DHT22;64680;53.800;9.988;2023-04-01T00:38:37;8.90;92.10
75994;DHT22;64680;53.800;9.988;2023-04-01T00:41:03;8.90;92.00
75994;DHT22;64680;53.800;9.988;2023-04-01T00:43:29;8.90;92.00
75994;DHT22;64680;53.800;9.988;2023-04-01T00:45:55;8.90;92.10
75994;DHT22;64680;53.800;9.988;2023-04-01T00:48:42;8.90;92.10
75994;DHT22;64680;53.800;9.988;2023-04-01T00:51:22;8.90;92.10
75994;DHT22;64680;53.800;9.988;2023-04-01T00:53:51;8.90;92.00
75994;DHT22;64680;53.800;9.988;2023-04-01T00:56:21;8.90;92.10
75994;DHT22;64680;53.800;9.988;2023-04-01T00:58:56;8.90;92.10
75994;DHT22;64680;53.800;9.988;2023-04-01T01:01:24;8.90;92.10
75994;DHT22;64680;53.800;9.988;2023-04-01T01:03:51;8.90;92.20
75994;DHT22;64680;53.800;9.988;2023-04-01T01:06:46;8.90;92.00
75994;DHT22;64680;53.800;9.988;2023-04-01T01:11:54;8.80;91.90
75994;DHT22;64680;53.800;9.988;2023-04-01T01:20:37;8.90;91.90
75994;DHT22;64680;53.800;9.988;2023-04-01T01:31:56;8.80;91.70
75994;DHT22;64680;53.800;9.988;2023-04-01T01:34:36;8.80;91.70
75994;DHT22;64680;53.800;9.988;2023-04-01T01:37:14;8.80;91.60
75994;DHT22;64680;53.800;9.988;2023-04-01T01:39:43;8.80;91.60
75994;DHT22;64680;53.800;9.988;2023-04-01T01:42:11;8.80;91.60
75994;DHT22;64680;53.800;9.988;2023-04-01T01:44:39;8.80;91.50
75994;DHT22;64680;53.800;9.988;2023-04-01T01:47:05;8.80;91.50
75994;DHT22;64680;53.800;9.988;2023-04-01T01:49:32;8.80;91.50
75994;DHT22;64680;53.800;9.988;2023-04-01T01:51:58;8.80;91.50
75994;DHT22;64680;53.800;9.988;2023-04-01T01:54:25;8.80;91.50
75994;DHT22;64680;53.800;9.988;2023-04-01T01:57:07;8.80;91.40
75994;DHT22;64680;53.800;9.988;2023-04-01T01:59:36;8.80;91.40
75994;DHT22;64680;53.800;9.988;2023-04-01T02:02:03;8.70;91.30
75994;DHT22;64680;53.800;9.988;2023-04-01T02:04:35;8.70;91.40
75994;DHT22;64680;53.800;9.988;2023-04-01T02:07:04;8.70;91.30
75994;DHT22;64680;53.800;9.988;2023-04-01T02:09:30;8.70;91.30
75994;DHT22;64680;53.800;9.988;2023-04-01T02:12:02;8.80;91.30
75994;DHT22;64680;53.800;9.988;2023-04-01T02:17:26;8.70;91.30
75994;DHT22;64680;53.800;9.988;2023-04-01T02:20:08;8.70;91.30
75994;DHT22;64680;53.800;9.988;2023-04-01T02:22:41;8.70;91.20
75994;DHT22;64680;53.800;9.988;2023-04-01T02:25:12;8.70;91.10
75994;DHT22;64680;53.800;9.988;2023-04-01T02:27:39;8.70;91.20
75994;DHT22;64680;53.800;9.988;2023-04-01T02:30:06;8.70;91.10
75994;DHT22;64680;53.800;9.988;2023-04-01T02:32:33;8.70;91.10
75994;DHT22;64680;53.800;9.988;2023-04-01T02:35:04;8.70;91.00
75994;DHT22;64680;53.800;9.988;2023-04-01T02:37:32;8.70;91.00
75994;DHT22;64680;53.800;9.988;2023-04-01T02:40:05;8.70;90.90
75994;DHT22;64680;53.800;9.988;2023-04-01T02:42:34;8.70;91.80
75994;DHT22;64680;53.800;9.988;2023-04-01T02:45:00;8.70;91.10
75994;DHT22;64680;53.800;9.988;2023-04-01T02:47:26;8.70;91.00
75994;DHT22;64680;53.800;9.988;2023-04-01T02:49:51;8.70;91.00
75994;DHT22;64680;53.800;9.988;2023-04-01T02:52:26;8.70;91.00
75994;DHT22;64680;53.800;9.988;2023-04-01T02:54:52;8.70;90.90
75994;DHT22;64680;53.800;9.988;2023-04-01T02:57:17;8.70;90.80
75994;DHT22;64680;53.800;9.988;2023-04-01T02:59:43;8.70;91.00
75994;DHT22;64680;53.800;9.988;2023-04-01T03:02:09;8.70;90.90
75994;DHT22;64680;53.800;9.988;2023-04-01T03:04:34;8.70;90.80
75994;DHT22;64680;53.800;9.988;2023-04-01T03:07:00;8.40;91.60
75994;DHT22;64680;53.800;9.988;2023-04-01T03:09:26;8.10;91.60
75994;DHT22;64680;53.800;9.988;2023-04-01T03:11:52;7.90;91.50
75994;DHT22;64680;53.800;9.988;2023-04-01T03:14:17;7.80;91.20
75994;DHT22;64680;53.800;9.988;2023-04-01T03:16:43;7.70;91.20
75994;DHT22;64680;53.800;9.988;2023-04-01T03:19:08;7.60;91.10
75994;DHT22;64680;53.800;9.988;2023-04-01T03:21:34;7.50;91.10
75994;DHT22;64680;53.800;9.988;2023-04-01T03:24:00;7.40;91.00
75994;DHT22;64680;53.800;9.988;2023-04-01T03:26:25;7.30;90.80
75994;DHT22;64680;53.800;9.988;2023-04-01T03:28:52;7.20;90.70
75994;DHT22;64680;53.800;9.988;2023-04-01T03:31:18;7.10;90.60
75994;DHT22;64680;53.800;9.988;2023-04-01T03:33:44;7.10;90.50
75994;DHT22;64680;53.800;9.988;2023-04-01T03:36:10;7.00;90.20
75994;DHT22;64680;53.800;9.988;2023-04-01T03:38:39;7.00;90.30
75994;DHT22;64680;53.800;9.988;2023-04-01T03:41:05;6.90;90.10
75994;DHT22;64680;53.800;9.988;2023-04-01T03:43:32;6.80;90.20
75994;DHT22;64680;53.800;9.988;2023-04-01T03:45:57;6.80;90.10
75994;DHT22;64680;53.800;9.988;2023-04-01T03:48:24;6.80;90.10
75994;DHT22;64680;53.800;9.988;2023-04-01T03:50:50;6.70;90.10
75994;DHT22;64680;53.800;9.988;2023-04-01T03:53:16;6.70;90.20
75994;DHT22;64680;53.800;9.988;2023-04-01T03:55:42;6.70;90.10
75994;DHT22;64680;53.800;9.988;2023-04-01T03:58:08;6.70;90.20
75994;DHT22;64680;53.800;9.988;2023-04-01T04:00:33;6.60;89.90
75994;DHT22;64680;53.800;9.988;2023-04-01T04:02:59;6.60;89.90
75994;DHT22;64680;53.800;9.988;2023-04-01T04:05:25;6.50;89.90
75994;DHT22;64680;53.800;9.988;2023-04-01T04:07:51;6.50;90.00
75994;DHT22;64680;53.800;9.988;2023-04-01T04:10:17;6.40;89.70
75994;DHT22;64680;53.800;9.988;2023-04-01T04:12:43;6.40;89.60
75994;DHT22;64680;53.800;9.988;2023-04-01T04:15:09;6.40;89.60
75994;DHT22;64680;53.800;9.988;2023-04-01T04:17:35;6.40;89.60
75994;DHT22;64680;53.800;9.988;2023-04-01T04:20:01;6.30;89.60
75994;DHT22;64680;53.800;9.988;2023-04-01T04:22:27;6.30;89.60
75994;DHT22;64680;53.800;9.988;2023-04-01T04:24:53;6.20;89.10
75994;DHT22;64680;53.800;9.988;2023-04-01T04:27:18;6.20;89.10
75994;DHT22;64680;53.800;9.988;2023-04-01T04:29:44;6.10;89.00
75994;DHT22;64680;53.800;9.988;2023-04-01T04:32:10;6.10;89.00
75994;DHT22;64680;53.800;9.988;2023-04-01T04:34:36;6.10;89.10
75994;DHT22;64680;53.800;9.988;2023-04-01T04:37:01;6.00;88.90
75994;DHT22;64680;53.800;9.988;2023-04-01T04:39:27;6.00;88.60
75994;DHT22;64680;53.800;9.988;2023-04-01T04:41:53;5.90;88.60
75994;DHT22;64680;53.800;9.988;2023-04-01T04:44:18;5.90;88.60
75994;DHT22;64680;53.800;9.988;2023-04-01T04:46:44;5.90;88.50
75994;DHT22;64680;53.800;9.988;2023-04-01T04:49:09;5.90;88.60
75994;DHT22;64680;53.800;9.988;2023-04-01T04:51:35;5.80;88.60
75994;DHT22;64680;53.800;9.988;2023-04-01T04:54:02;5.80;88.60
75994;DHT22;64680;53.800;9.988;2023-04-01T04:56:28;5.80;88.60
75994;DHT22;64680;53.800;9.988;2023-04-01T04:58:54;5.80;88.50
75994;DHT22;64680;53.800;9.988;2023-04-01T05:01:19;5.70;88.30
75994;DHT22;64680;53.800;9.988;2023-04-01T05:03:45;5.70;88.40
75994;DHT22;64680;53.800;9.988;2023-04-01T05:06:13;5.70;88.20
75994;DHT22;64680;53.800;9.988;2023-04-01T05:08:40;5.70;88.20
75994;DHT22;64680;53.800;9.988;2023-04-01T05:11:17;5.60;88.10
75994;DHT22;64680;53.800;9.988;2023-04-01T05:13:44;5.60;88.20
75994;DHT22;64680;53.800;9.988;2023-04-01T05:16:12;5.60;88.10
75994;DHT22;64680;53.800;9.988;2023-04-01T05:18:38;5.60;88.00
75994;DHT22;64680;53.800;9.988;2023-04-01T05:21:06;5.50;88.00
75994;DHT22;64680;53.800;9.988;2023-04-01T05:23:32;5.50;87.70
75994;DHT22;64680;53.800;9.988;2023-04-01T05:25:58;5.50;87.50
75994;DHT22;64680;53.800;9.988;2023-04-01T05:28:24;5.50;87.80
75994;DHT22;64680;53.800;9.988;2023-04-01T05:30:50;5.50;87.80
75994;DHT22;64680;53.800;9.988;2023-04-01T05:33:16;5.50;87.80
75994;DHT22;64680;53.800;9.988;2023-04-01T05:35:41;5.50;88.00
75994;DHT22;64680;53.800;9.988;2023-04-01T05:38:07;5.40;87.40
75994;DHT22;64680;53.800;9.988;2023-04-01T05:40:33;5.40;87.60
75994;DHT22;64680;53.800;9.988;2023-04-01T05:42:59;5.50;87.80
75994;DHT22;64680;53.800;9.988;2023-04-01T05:45:26;5.40;87.30
75994;DHT22;64680;53.800;9.988;2023-04-01T05:47:52;5.40;87.20
75994;DHT22;64680;53.800;9.988;2023-04-01T05:50:18;5.40;86.90
75994;DHT22;64680;53.800;9.988;2023-04-01T05:52:43;5.40;87.00
75994;DHT22;64680;53.800;9.988;2023-04-01T05:55:10;5.40;87.00
75994;DHT22;64680;53.800;9.988;2023-04-01T05:57:35;5.30;86.90
75994;DHT22;64680;53.800;9.988;2023-04-01T06:00:01;5.30;86.80
75994;DHT22;64680;53.800;9.988;2023-04-01T06:02:27;5.30;86.90
75994;DHT22;64680;53.800;9.988;2023-04-01T06:05:03;5.30;87.20
75994;DHT22;64680;53.800;9.988;2023-04-01T06:07:36;5.20;86.80
75994;DHT22;64680;53.800;9.988;2023-04-01T06:10:14;5.20;86.10
75994;DHT22;64680;53.800;9.988;2023-04-01T06:13:00;5.20;86.40
75994;DHT22;64680;53.800;9.988;2023-04-01T06:15:47;5.20;86.60
75994;DHT22;64680;53.800;9.988;2023-04-01T06:18:45;5.10;86.10
75994;DHT22;64680;53.800;9.988;2023-04-01T06:29:56;5.20;86.80
75994;DHT22;64680;53.800;9.988;2023-04-01T06:32:28;5.20;86.30
75994;DHT22;64680;53.800;9.988;2023-04-01T06:40:50;5.20;84.90
75994;DHT22;64680;53.800;9.988;2023-04-01T06:49:27;5.20;84.50
75994;DHT22;64680;53.800;9.988;2023-04-01T06:54:41;5.20;84.90
75994;DHT22;64680;53.800;9.988;2023-04-01T06:59:42;5.20;84.60
75994;DHT22;64680;53.800;9.988;2023-04-01T07:02:16;5.10;84.10
75994;DHT22;64680;53.800;9.988;2023-04-01T07:04:46;5.20;84.30
75994;DHT22;64680;53.800;9.988;2023-04-01T07:07:41;5.10;83.70
75994;DHT22;64680;53.800;9.988;2023-04-01T07:10:23;5.10;84.10
75994;DHT22;64680;53.800;9.988;2023-04-01T07:12:54;5.10;83.70
75994;DHT22;64680;53.800;9.988;2023-04-01T07:15:33;5.10;82.70
75994;DHT22;64680;53.800;9.988;2023-04-01T07:18:21;5.10;83.10
75994;DHT22;64680;53.800;9.988;2023-04-01T07:20:49;5.10;83.30
75994;DHT22;64680;53.800;9.988;2023-04-01T07:23:22;5.10;83.60
75994;DHT22;64680;53.800;9.988;2023-04-01T07:25:52;5.10;84.20
75994;DHT22;64680;53.800;9.988;2023-04-01T07:28:19;5.10;84.40
75994;DHT22;64680;53.800;9.988;2023-04-01T07:36:14;5.00;83.10
75994;DHT22;64680;53.800;9.988;2023-04-01T07:39:09;5.00;83.30
75994;DHT22;64680;53.800;9.988;2023-04-01T07:42:01;5.00;83.10
75994;DHT22;64680;53.800;9.988;2023-04-01T07:53:36;5.00;83.40
75994;DHT22;64680;53.800;9.988;2023-04-01T07:56:10;4.90;81.90
75994;DHT22;64680;53.800;9.988;2023-04-01T08:03:53;5.00;82.40
75994;DHT22;64680;53.800;9.988;2023-04-01T08:06:37;5.00;83.00
75994;DHT22;64680;53.800;9.988;2023-04-01T08:17:40;4.90;82.00
75994;DHT22;64680;53.800;9.988;2023-04-01T08:20:32;4.80;81.00
75994;DHT22;64680;53.800;9.988;2023-04-01T08:23:19;4.80;82.20
75994;DHT22;64680;53.800;9.988;2023-04-01T08:25:58;4.80;82.40
75994;DHT22;64680;53.800;9.988;2023-04-01T08:31:26;4.80;81.80
75994;DHT22;64680;53.800;9.988;2023-04-01T08:33:55;4.90;83.10
75994;DHT22;64680;53.800;9.988;2023-04-01T08:36:50;4.90;81.80
75994;DHT22;64680;53.800;9.988;2023-04-01T08:45:18;4.90;82.70
75994;DHT22;64680;53.800;9.988;2023-04-01T08:50:54;5.00;83.60
75994;DHT22;64680;53.800;9.988;2023-04-01T08:56:23;5.00;81.30
75994;DHT22;64680;53.800;9.988;2023-04-01T08:59:13;5.00;80.90
75994;DHT22;64680;53.800;9.988;2023-04-01T09:01:46;5.00;80.20
75994;DHT22;64680;53.800;9.988;2023-04-01T09:04:38;5.00;80.90
75994;DHT22;64680;53.800;9.988;2023-04-01T09:27:13;5.20;80.10
75994;DHT22;64680;53.800;9.988;2023-04-01T09:38:22;5.40;81.50
75994;DHT22;64680;53.800;9.988;2023-04-01T09:46:18;5.50;82.70
75994;DHT22;64680;53.800;9.988;2023-04-01T09:51:37;5.40;79.80
75994;DHT22;64680;53.800;9.988;2023-04-01T09:54:19;5.30;79.80
75994;DHT22;64680;53.800;9.988;2023-04-01T10:05:58;5.30;81.80
75994;DHT22;64680;53.800;9.988;2023-04-01T10:11:22;5.30;80.70
75994;DHT22;64680;53.800;9.988;2023-04-01T10:14:29;5.30;80.20
75994;DHT22;64680;53.800;9.988;2023-04-01T10:17:23;5.30;80.30
75994;DHT22;64680;53.800;9.988;2023-04-01T10:23:13;5.40;80.70
75994;DHT22;64680;53.800;9.988;2023-04-01T10:51:12;5.30;76.80
75994;DHT22;64680;53.800;9.988;2023-04-01T10:54:13;5.30;75.80
75994;DHT22;64680;53.800;9.988;2023-04-01T11:25:23;5.00;76.80
75994;DHT22;64680;53.800;9.988;2023-04-01T11:30:51;4.90;78.60
75994;DHT22;64680;53.800;9.988;2023-04-01T11:33:28;4.90;78.60
75994;DHT22;64680;53.800;9.988;2023-04-01T11:42:28;4.80;78.80
75994;DHT22;64680;53.800;9.988;2023-04-01T11:58:23;4.70;74.90
75994;DHT22;64680;53.800;9.988;2023-04-01T12:00:58;4.70;75.30
75994;DHT22;64680;53.800;9.988;2023-04-01T12:06:40;4.70;75.10
75994;DHT22;64680;53.800;9.988;2023-04-01T12:15:29;4.70;77.20
75994;DHT22;64680;53.800;9.988;2023-04-01T12:20:50;4.60;75.10
75994;DHT22;64680;53.800;9.988;2023-04-01T12:28:58;4.60;74.80
75994;DHT22;64680;53.800;9.988;2023-04-01T12:34:19;4.50;71.20
75994;DHT22;64680;53.800;9.988;2023-04-01T12:39:37;4.50;68.80
75994;DHT22;64680;53.800;9.988;2023-04-01T12:55:41;4.60;71.20
75994;DHT22;64680;53.800;9.988;2023-04-01T12:58:21;4.50;68.40
75994;DHT22;64680;53.800;9.988;2023-04-01T13:01:19;4.50;69.20
75994;DHT22;64680;53.800;9.988;2023-04-01T13:03:53;4.50;70.70
75994;DHT22;64680;53.800;9.988;2023-04-01T13:06:32;4.50;68.70
75994;DHT22;64680;53.800;9.988;2023-04-01T13:17:50;4.40;70.20
75994;DHT22;64680;53.800;9.988;2023-04-01T13:23:24;4.50;70.80
75994;DHT22;64680;53.800;9.988;2023-04-01T13:26:08;4.40;67.10
75994;DHT22;64680;53.800;9.988;2023-04-01T13:28:42;4.30;67.70
75994;DHT22;64680;53.800;9.988;2023-04-01T13:34:55;4.40;68.60
75994;DHT22;64680;53.800;9.988;2023-04-01T13:37:31;4.40;68.90
75994;DHT22;64680;53.800;9.988;2023-04-01T13:43:01;4.30;65.20
75994;DHT22;64680;53.800;9.988;2023-04-01T13:48:38;4.30;65.20
75994;DHT22;64680;53.800;9.988;2023-04-01T13:56:48;4.40;66.40
75994;DHT22;64680;53.800;9.988;2023-04-01T13:59:35;4.50;64.50
75994;DHT22;64680;53.800;9.988;2023-04-01T14:08:13;4.40;67.00
75994;DHT22;64680;53.800;9.988;2023-04-01T14:10:45;4.40;62.70
75994;DHT22;64680;53.800;9.988;2023-04-01T14:13:57;4.40;64.80
75994;DHT22;64680;53.800;9.988;2023-04-01T14:19:07;4.40;66.40
75994;DHT22;64680;53.800;9.988;2023-04-01T14:21:58;4.30;66.40
75994;DHT22;64680;53.800;9.988;2023-04-01T14:27:28;4.30;66.10
75994;DHT22;64680;53.800;9.988;2023-04-01T14:46:27;4.20;62.60
75994;DHT22;64680;53.800;9.988;2023-04-01T14:49:00;4.20;62.50
75994;DHT22;64680;53.800;9.988;2023-04-01T14:54:13;4.20;65.30
75994;DHT22;64680;53.800;9.988;2023-04-01T14:56:50;4.20;64.10
75994;DHT22;64680;53.800;9.988;2023-04-01T15:02:03;4.20;63.00
75994;DHT22;64680;53.800;9.988;2023-04-01T15:10:31;4.10;59.40
75994;DHT22;64680;53.800;9.988;2023-04-01T15:35:19;4.00;67.00
75994;DHT22;64680;53.800;9.988;2023-04-01T15:38:03;4.00;65.90
75994;DHT22;64680;53.800;9.988;2023-04-01T15:40:32;3.90;62.40
75994;DHT22;64680;53.800;9.988;2023-04-01T15:48:54;3.90;65.10
75994;DHT22;64680;53.800;9.988;2023-04-01T15:51:31;3.80;62.90
75994;DHT22;64680;53.800;9.988;2023-04-01T15:57:13;3.70;62.20
75994;DHT22;64680;53.800;9.988;2023-04-01T16:00:06;3.70;65.60
75994;DHT22;64680;53.800;9.988;2023-04-01T16:02:49;3.80;64.60
75994;DHT22;64680;53.800;9.988;2023-04-01T16:11:17;3.80;60.00
75994;DHT22;64680;53.800;9.988;2023-04-01T16:16:59;3.70;60.50
75994;DHT22;64680;53.800;9.988;2023-04-01T16:19:47;3.70;61.00
75994;DHT22;64680;53.800;9.988;2023-04-01T16:22:45;3.70;59.30
75994;DHT22;64680;53.800;9.988;2023-04-01T16:25:44;3.70;57.80
75994;DHT22;64680;53.800;9.988;2023-04-01T16:34:36;3.60;57.60
75994;DHT22;64680;53.800;9.988;2023-04-01T16:37:20;3.60;57.60
75994;DHT22;64680;53.800;9.988;2023-04-01T16:45:55;3.60;55.70
75994;DHT22;64680;53.800;9.988;2023-04-01T16:51:16;3.60;55.00
75994;DHT22;64680;53.800;9.988;2023-04-01T16:53:47;3.60;54.10
75994;DHT22;64680;53.800;9.988;2023-04-01T16:56:27;3.60;53.00
75994;DHT22;64680;53.800;9.988;2023-04-01T16:59:27;3.50;54.50
75994;DHT22;64680;53.800;9.988;2023-04-01T17:05:03;3.40;50.50
75994;DHT22;64680;53.800;9.988;2023-04-01T17:08:08;3.40;45.70
75994;DHT22;64680;53.800;9.988;2023-04-01T17:18:50;3.30;50.50
75994;DHT22;64680;53.800;9.988;2023-04-01T17:21:30;3.30;52.00
75994;DHT22;64680;53.800;9.988;2023-04-01T17:35:34;3.10;49.00
75994;DHT22;64680;53.800;9.988;2023-04-01T17:38:13;3.10;48.80
75994;DHT22;64680;53.800;9.988;2023-04-01T17:40:50;3.10;45.60
75994;DHT22;64680;53.800;9.988;2023-04-01T17:49:27;3.00;46.10
75994;DHT22;64680;53.800;9.988;2023-04-01T17:57:41;3.00;45.80
75994;DHT22;64680;53.800;9.988;2023-04-01T18:00:21;3.00;47.50
75994;DHT22;64680;53.800;9.988;2023-04-01T18:06:05;3.00;44.20
75994;DHT22;64680;53.800;9.988;2023-04-01T18:08:55;3.00;43.50
75994;DHT22;64680;53.800;9.988;2023-04-01T18:17:00;2.90;38.90
75994;DHT22;64680;53.800;9.988;2023-04-01T18:24:45;2.80;38.30
75994;DHT22;64680;53.800;9.988;2023-04-01T18:27:17;2.80;33.70
75994;DHT22;64680;53.800;9.988;2023-04-01T18:29:58;2.70;33.50
75994;DHT22;64680;53.800;9.988;2023-04-01T18:32:41;2.60;33.00
75994;DHT22;64680;53.800;9.988;2023-04-01T18:40:39;2.60;37.10
75994;DHT22;64680;53.800;9.988;2023-04-01T18:43:30;2.60;36.20
75994;DHT22;64680;53.800;9.988;2023-04-01T18:46:24;2.60;36.50
75994;DHT22;64680;53.800;9.988;2023-04-01T18:49:21;2.60;38.10
75994;DHT22;64680;53.800;9.988;2023-04-01T18:55:23;2.60;35.90
75994;DHT22;64680;53.800;9.988;2023-04-01T18:57:47;2.60;35.60
75994;DHT22;64680;53.800;9.988;2023-04-01T19:00:22;2.50;37.60
75994;DHT22;64680;53.800;9.988;2023-04-01T19:03:00;2.50;38.10
75994;DHT22;64680;53.800;9.988;2023-04-01T19:05:34;2.50;37.40
75994;DHT22;64680;53.800;9.988;2023-04-01T19:08:31;2.50;36.20
75994;DHT22;64680;53.800;9.988;2023-04-01T19:13:47;2.50;38.80
75994;DHT22;64680;53.800;9.988;2023-04-01T19:16:43;2.50;39.70
75994;DHT22;64680;53.800;9.988;2023-04-01T19:19:23;2.40;36.30
75994;DHT22;64680;53.800;9.988;2023-04-01T19:22:08;2.40;38.80
75994;DHT22;64680;53.800;9.988;2023-04-01T19:30:07;2.20;35.60
75994;DHT22;64680;53.800;9.988;2023-04-01T19:33:08;2.10;35.40
75994;DHT22;64680;53.800;9.988;2023-04-01T19:38:52;2.00;34.40
75994;DHT22;64680;53.800;9.988;2023-04-01T19:41:40;2.00;36.20
75994;DHT22;64680;53.800;9.988;2023-04-01T19:44:29;1.90;37.40
75994;DHT22;64680;53.800;9.988;2023-04-01T19:49:57;1.80;38.30
75994;DHT22;64680;53.800;9.988;2023-04-01T19:52:33;1.70;39.50
75994;DHT22;64680;53.800;9.988;2023-04-01T19:55:32;1.70;38.60
75994;DHT22;64680;53.800;9.988;2023-04-01T19:58:03;1.70;39.80
75994;DHT22;64680;53.800;9.988;2023-04-01T20:00:35;1.60;41.10
75994;DHT22;64680;53.800;9.988;2023-04-01T20:03:14;1.50;40.60
75994;DHT22;64680;53.800;9.988;2023-04-01T20:14:23;1.40;39.60
75994;DHT22;64680;53.800;9.988;2023-04-01T20:17:01;1.30;37.90
75994;DHT22;64680;53.800;9.988;2023-04-01T20:28:09;1.40;37.60
75994;DHT22;64680;53.800;9.988;2023-04-01T20:31:09;1.30;39.60
75994;DHT22;64680;53.800;9.988;2023-04-01T20:34:03;1.20;39.80
75994;DHT22;64680;53.800;9.988;2023-04-01T20:36:57;1.20;39.70
75994;DHT22;64680;53.800;9.988;2023-04-01T20:42:07;1.30;39.30
75994;DHT22;64680;53.800;9.988;2023-04-01T20:45:04;1.30;38.20
75994;DHT22;64680;53.800;9.988;2023-04-01T20:47:59;1.30;36.70
75994;DHT22;64680;53.800;9.988;2023-04-01T21:12:47;1.20;34.50
75994;DHT22;64680;53.800;9.988;2023-04-01T21:15:56;1.20;32.50
75994;DHT22;64680;53.800;9.988;2023-04-01T21:34:57;1.10;33.60
75994;DHT22;64680;53.800;9.988;2023-04-01T22:00:18;0.80;35.50
75994;DHT22;64680;53.800;9.988;2023-04-01T22:11:37;0.80;32.60
75994;DHT22;64680;53.800;9.988;2023-04-01T22:14:11;0.80;33.60
75994;DHT22;64680;53.800;9.988;2023-04-01T22:16:43;0.80;33.10
75994;DHT22;64680;53.800;9.988;2023-04-01T22:19:26;0.70;32.50
75994;DHT22;64680;53.800;9.988;2023-04-01T22:22:04;0.70;31.90
75994;DHT22;64680;53.800;9.988;2023-04-01T22:38:22;0.70;28.40
75994;DHT22;64680;53.800;9.988;2023-04-01T22:40:59;0.80;28.30
75994;DHT22;64680;53.800;9.988;2023-04-01T22:43:45;0.70;30.10
75994;DHT22;64680;53.800;9.988;2023-04-01T22:49:08;0.60;29.60
75994;DHT22;64680;53.800;9.988;2023-04-01T22:51:49;0.60;30.10
75994;DHT22;64680;53.800;9.988;2023-04-01T22:54:31;0.60;29.40
75994;DHT22;64680;53.800;9.988;2023-04-01T23:00:01;0.60;28.70
75994;DHT22;64680;53.800;9.988;2023-04-01T23:02:37;0.60;28.00
75994;DHT22;64680;53.800;9.988;2023-04-01T23:05:05;0.60;26.90
75994;DHT22;64680;53.800;9.988;2023-04-01T23:10:41;0.60;28.40
75994;DHT22;64680;53.800;9.988;2023-04-01T23:13:16;0.50;29.60
75994;DHT22;64680;53.800;9.988;2023-04-01T23:15:44;0.50;29.50
75994;DHT22;64680;53.800;9.988;2023-04-01T23:21:21;0.50;29.80
75994;DHT22;64680;53.800;9.988;2023-04-01T23:26:53;0.40;31.20
75994;DHT22;64680;53.800;9.988;2023-04-01T23:29:21;0.40;31.60
75994;DHT22;64680;53.800;9.988;2023-04-01T23:32:01;0.40;31.60
75994;DHT22;64680;53.800;9.988;2023-04-01T23:34:34;0.40;32.70
75994;DHT22;64680;53.800;9.988;2023-04-01T23:37:10;0.30;33.20
75994;DHT22;64680;53.800;9.988;2023-04-01T23:39:39;0.40;33.30
75994;DHT22;64680;53.800;9.988;2023-04-01T23:44:49;0.40;34.40
75994;DHT22;64680;53.800;9.988;2023-04-01T23:47:18;0.30;34.60
75994;DHT22;64680;53.800;9.988;2023-04-01T23:49:48;0.30;35.40
75994;DHT22;64680;53.800;9.988;2023-04-01T23:54:58;0.30;35.50
75994;DHT22;64680;53.800;9.988;2023-04-01T23:57:33;0.40;36.10
